Time;durP1;ratioP1;P1;durP2;ratioP2;P2;SDS_P1;SDS_P2;PMS_P1;PMS_P2;Temp;Humidity;BMP_temperature;BMP_pressure;BME280_temperature;BME280_humidity;BME280_pressure;Samples;Min_cycle;Max_cycle;Signal;HPM_P1;HPM_P2
2022/08/16 00:01:32;;;;;;;6.00;3.58;;;;;;;;;;5074309;28;20031;-87
2022/08/16 00:03:58;;;;;;;6.05;3.97;;;;;;;;;;5072266;28;20101;-87
2022/08/16 00:06:25;;;;;;;7.15;4.57;;;;;;;;;;5054506;28;20491;-87
2022/08/16 00:08:51;;;;;;;5.72;4.00;;;;;;;;;;5064418;28;20035;-87
2022/08/16 00:11:17;;;;;;;5.65;4.03;;;;;;;;;;5092619;28;20028;-87
2022/08/16 00:13:46;;;;;;;6.13;4.15;;;;;;;;;;5090102;28;20028;-87
2022/08/16 00:16:12;;;;;;;5.75;3.95;;;;;;;;;;5082379;28;20032;-87
2022/08/16 00:18:38;;;;;;;6.47;4.40;;;;;;;;;;5095768;28;20119;-86
2022/08/16 00:21:04;;;;;;;5.10;3.88;;;;;;;;;;5087934;28;20134;-87
2022/08/16 00:23:31;;;;;;;5.38;3.63;;;;;;;;;;5102944;28;20029;-87
2022/08/16 00:25:57;;;;;;;6.43;4.53;;;;;;;;;;5085615;28;20012;-86
2022/08/16 00:28:23;;;;;;;6.05;4.25;;;;;;;;;;5084475;28;20024;-87
2022/08/16 00:30:49;;;;;;;6.30;4.40;;;;;;;;;;5074409;28;20073;-86
2022/08/16 00:33:15;;;;;;;6.07;3.90;;;;;;;;;;5093144;28;20039;-87
2022/08/16 00:35:41;;;;;;;5.35;4.00;;;;;;;;;;5073971;28;20055;-87
2022/08/16 00:38:08;;;;;;;5.70;4.03;;;;;;;;;;5073931;28;20520;-87
2022/08/16 00:40:34;;;;;;;6.10;4.30;;;;;;;;;;5091522;28;20512;-87
2022/08/16 00:43:00;;;;;;;5.38;3.50;;;;;;;;;;5073736;28;20031;-87
2022/08/16 00:45:32;;;;;;;6.72;4.22;;;;;;;;;;5073471;28;20021;-87
2022/08/16 00:47:58;;;;;;;6.25;4.32;;;;;;;;;;5074059;28;20016;-86
2022/08/16 00:50:26;;;;;;;6.07;3.97;;;;;;;;;;5072482;28;20454;-87
2022/08/16 00:52:52;;;;;;;6.32;4.22;;;;;;;;;;5074003;28;20414;-87
2022/08/16 00:55:23;;;;;;;5.97;4.20;;;;;;;;;;5091877;28;20050;-87
2022/08/16 00:57:50;;;;;;;6.63;4.50;;;;;;;;;;5074484;28;20062;-87
2022/08/16 01:00:17;;;;;;;6.25;4.28;;;;;;;;;;5072856;28;20389;-87
2022/08/16 01:02:43;;;;;;;5.72;3.95;;;;;;;;;;5072838;28;20055;-87
2022/08/16 01:05:09;;;;;;;6.15;4.00;;;;;;;;;;5061288;28;20056;-86
2022/08/16 01:07:36;;;;;;;6.72;4.68;;;;;;;;;;5073135;28;20489;-87
2022/08/16 01:10:02;;;;;;;7.32;4.65;;;;;;;;;;5088701;28;20024;-87
2022/08/16 01:12:28;;;;;;;5.78;3.90;;;;;;;;;;5075406;28;20039;-87
2022/08/16 01:14:56;;;;;;;6.20;4.03;;;;;;;;;;5062493;28;20031;-87
2022/08/16 01:17:22;;;;;;;6.47;4.68;;;;;;;;;;5073098;28;20062;-87
2022/08/16 01:19:51;;;;;;;6.60;4.80;;;;;;;;;;5072273;28;20024;-87
2022/08/16 01:22:20;;;;;;;7.15;4.40;;;;;;;;;;5054044;28;20524;-87
2022/08/16 01:24:47;;;;;;;6.57;4.40;;;;;;;;;;5081020;28;20044;-87
2022/08/16 01:27:22;;;;;;;6.18;4.38;;;;;;;;;;5073386;28;20107;-87
2022/08/16 01:29:51;;;;;;;6.00;4.45;;;;;;;;;;5073363;28;20122;-88
2022/08/16 01:32:17;;;;;;;6.30;4.55;;;;;;;;;;5082754;28;20024;-87
2022/08/16 01:34:43;;;;;;;7.22;4.47;;;;;;;;;;5063196;28;20386;-87
2022/08/16 01:37:13;;;;;;;6.10;4.38;;;;;;;;;;5091186;28;20055;-87
2022/08/16 01:39:40;;;;;;;6.55;4.90;;;;;;;;;;5092386;28;20059;-88
2022/08/16 01:42:07;;;;;;;6.65;4.72;;;;;;;;;;5072386;28;20584;-87
2022/08/16 01:44:34;;;;;;;6.43;4.63;;;;;;;;;;5073796;28;20478;-90
2022/08/16 01:47:00;;;;;;;7.32;4.10;;;;;;;;;;5076431;28;20057;-87
2022/08/16 01:49:37;;;;;;;6.68;4.75;;;;;;;;;;5074625;28;20114;-88
2022/08/16 01:52:05;;;;;;;6.05;4.40;;;;;;;;;;5091245;28;20043;-88
2022/08/16 01:54:32;;;;;;;7.78;4.25;;;;;;;;;;5091768;28;20021;-87
2022/08/16 01:56:59;;;;;;;7.03;4.82;;;;;;;;;;5092907;28;20088;-87
2022/08/16 01:59:25;;;;;;;6.35;3.78;;;;;;;;;;5078262;28;20032;-87
2022/08/16 02:01:52;;;;;;;7.13;3.97;;;;;;;;;;5075046;28;20028;-88
2022/08/16 02:04:19;;;;;;;6.13;3.92;;;;;;;;;;5093526;28;20130;-88
2022/08/16 02:06:45;;;;;;;5.90;3.70;;;;;;;;;;5091832;27;20016;-89
2022/08/16 02:09:11;;;;;;;5.65;3.92;;;;;;;;;;5116995;27;20032;-89
2022/08/16 02:11:38;;;;;;;5.32;3.35;;;;;;;;;;5083720;28;20028;-86
2022/08/16 02:14:05;;;;;;;7.85;3.75;;;;;;;;;;5092723;28;20533;-88
2022/08/16 02:16:31;;;;;;;5.35;3.28;;;;;;;;;;5069888;28;20028;-87
2022/08/16 02:18:58;;;;;;;7.18;3.60;;;;;;;;;;5092490;28;20070;-87
2022/08/16 02:21:24;;;;;;;6.05;3.20;;;;;;;;;;5094686;28;20036;-87
2022/08/16 02:23:50;;;;;;;7.43;3.60;;;;;;;;;;5076885;28;20115;-89
2022/08/16 02:26:16;;;;;;;5.25;3.67;;;;;;;;;;5077174;28;20114;-87
2022/08/16 02:28:43;;;;;;;6.40;3.70;;;;;;;;;;5076121;28;20024;-87
2022/08/16 02:31:12;;;;;;;5.07;3.40;;;;;;;;;;5077241;28;20028;-87
2022/08/16 02:33:38;;;;;;;5.85;3.25;;;;;;;;;;5077434;28;20463;-88
2022/08/16 02:36:04;;;;;;;5.78;3.63;;;;;;;;;;5076636;28;20028;-87
2022/08/16 02:38:32;;;;;;;5.45;3.45;;;;;;;;;;5094593;28;20028;-88
2022/08/16 02:40:59;;;;;;;6.32;3.80;;;;;;;;;;5076292;28;20024;-89
2022/08/16 02:43:26;;;;;;;7.10;3.85;;;;;;;;;;5074993;28;20027;-87
2022/08/16 02:45:52;;;;;;;5.63;2.90;;;;;;;;;;5076120;28;20351;-88
2022/08/16 02:48:18;;;;;;;7.07;3.63;;;;;;;;;;5076083;28;20028;-88
2022/08/16 02:50:44;;;;;;;6.88;3.53;;;;;;;;;;5096877;28;20031;-86
2022/08/16 02:53:10;;;;;;;7.63;3.20;;;;;;;;;;5078545;28;20032;-88
2022/08/16 02:55:36;;;;;;;6.50;3.60;;;;;;;;;;5075686;28;20043;-88
2022/08/16 02:58:04;;;;;;;5.47;3.30;;;;;;;;;;5095381;28;20032;-88
2022/08/16 03:00:30;;;;;;;6.18;3.92;;;;;;;;;;5077165;28;20517;-88
2022/08/16 03:02:56;;;;;;;5.70;3.45;;;;;;;;;;5076341;28;20039;-87
2022/08/16 03:05:23;;;;;;;6.40;3.67;;;;;;;;;;5074375;28;20111;-88
2022/08/16 03:07:49;;;;;;;5.28;3.22;;;;;;;;;;5075045;28;20103;-87
2022/08/16 03:10:16;;;;;;;5.10;3.03;;;;;;;;;;5077087;28;20055;-88
2022/08/16 03:12:45;;;;;;;5.28;2.97;;;;;;;;;;5093937;28;20067;-88
2022/08/16 03:15:12;;;;;;;5.20;3.22;;;;;;;;;;5076403;28;20020;-87
2022/08/16 03:17:39;;;;;;;6.65;3.20;;;;;;;;;;5074190;28;20067;-88
2022/08/16 03:20:06;;;;;;;5.57;2.95;;;;;;;;;;5076843;28;20566;-88
2022/08/16 03:22:32;;;;;;;6.57;3.30;;;;;;;;;;5077867;28;20043;-87
2022/08/16 03:24:59;;;;;;;6.00;3.08;;;;;;;;;;5073523;28;20062;-87
2022/08/16 03:27:26;;;;;;;6.80;2.78;;;;;;;;;;5095609;28;20495;-87
2022/08/16 03:29:52;;;;;;;5.68;3.05;;;;;;;;;;5095499;28;20405;-87
2022/08/16 03:32:18;;;;;;;5.57;3.08;;;;;;;;;;5076230;28;20050;-87
2022/08/16 03:34:45;;;;;;;5.15;2.90;;;;;;;;;;5075761;28;20027;-88
2022/08/16 03:37:11;;;;;;;5.63;3.03;;;;;;;;;;5076295;28;20169;-87
2022/08/16 03:39:38;;;;;;;5.28;2.85;;;;;;;;;;5077584;28;20027;-88
2022/08/16 03:42:04;;;;;;;7.20;3.58;;;;;;;;;;5078018;28;20055;-87
2022/08/16 03:44:31;;;;;;;5.82;3.05;;;;;;;;;;5074918;28;20478;-88
2022/08/16 03:46:57;;;;;;;7.18;2.88;;;;;;;;;;5074692;28;20027;-87
2022/08/16 03:49:23;;;;;;;5.68;2.80;;;;;;;;;;5094607;28;20028;-87
2022/08/16 03:51:49;;;;;;;5.07;2.90;;;;;;;;;;5077640;28;20444;-87
2022/08/16 03:54:15;;;;;;;5.45;2.83;;;;;;;;;;5094597;28;20032;-87
2022/08/16 03:56:41;;;;;;;5.90;2.85;;;;;;;;;;5073275;28;20024;-87
2022/08/16 03:59:07;;;;;;;8.93;2.80;;;;;;;;;;5075737;28;20147;-88
2022/08/16 04:01:34;;;;;;;6.45;2.53;;;;;;;;;;5076618;28;20036;-88
2022/08/16 04:04:00;;;;;;;5.05;2.67;;;;;;;;;;5093352;28;20123;-89
2022/08/16 04:06:26;;;;;;;5.43;2.70;;;;;;;;;;5095315;28;20038;-87
2022/08/16 04:08:52;;;;;;;5.07;2.47;;;;;;;;;;5088294;28;20650;-87
2022/08/16 04:11:18;;;;;;;5.20;2.72;;;;;;;;;;5091358;28;20032;-87
2022/08/16 04:13:46;;;;;;;12.23;4.28;;;;;;;;;;5077076;28;20047;-88
2022/08/16 04:16:13;;;;;;;6.20;2.80;;;;;;;;;;5075006;28;20027;-87
2022/08/16 04:18:41;;;;;;;6.78;2.70;;;;;;;;;;5074387;28;20112;-87
2022/08/16 04:21:08;;;;;;;4.88;2.67;;;;;;;;;;5072400;28;20032;-87
2022/08/16 04:23:35;;;;;;;4.60;2.70;;;;;;;;;;5073232;28;20077;-87
2022/08/16 04:26:01;;;;;;;4.95;2.60;;;;;;;;;;5075933;28;20020;-88
2022/08/16 04:28:27;;;;;;;6.25;3.00;;;;;;;;;;5075196;28;20081;-87
2022/08/16 04:30:53;;;;;;;6.68;2.55;;;;;;;;;;5092835;28;20024;-89
2022/08/16 04:33:19;;;;;;;5.53;3.00;;;;;;;;;;5090724;28;20028;-89
2022/08/16 04:35:45;;;;;;;5.20;2.80;;;;;;;;;;5075250;28;20024;-89
2022/08/16 04:38:11;;;;;;;6.68;2.80;;;;;;;;;;5074325;28;20402;-89
2022/08/16 04:40:37;;;;;;;7.65;3.10;;;;;;;;;;5075177;28;20024;-90
2022/08/16 04:43:04;;;;;;;4.43;2.20;;;;;;;;;;5073301;28;20028;-89
2022/08/16 04:45:30;;;;;;;5.45;2.92;;;;;;;;;;5074192;28;20020;-88
2022/08/16 04:47:56;;;;;;;6.15;2.63;;;;;;;;;;5091852;28;20106;-88
2022/08/16 04:50:23;;;;;;;4.85;2.45;;;;;;;;;;5092176;28;20020;-89
2022/08/16 04:52:50;;;;;;;5.68;2.97;;;;;;;;;;5073844;28;20028;-89
2022/08/16 04:55:18;;;;;;;4.95;2.55;;;;;;;;;;5074932;28;20020;-90
2022/08/16 04:57:45;;;;;;;5.00;2.47;;;;;;;;;;5074599;28;20024;-88
2022/08/16 05:00:14;;;;;;;5.70;2.80;;;;;;;;;;5073877;28;20077;-88
2022/08/16 05:02:40;;;;;;;6.18;2.35;;;;;;;;;;5071899;28;20050;-89
2022/08/16 05:05:06;;;;;;;5.05;2.55;;;;;;;;;;5092576;28;20020;-88
2022/08/16 05:07:32;;;;;;;7.05;3.00;;;;;;;;;;5067698;28;20024;-88
2022/08/16 05:09:58;;;;;;;4.68;2.60;;;;;;;;;;5091116;28;20036;-87
2022/08/16 05:12:24;;;;;;;6.28;2.85;;;;;;;;;;5071320;28;20024;-89
2022/08/16 05:14:51;;;;;;;5.15;2.60;;;;;;;;;;5090601;28;20034;-88
2022/08/16 05:17:17;;;;;;;6.63;2.88;;;;;;;;;;5071756;28;20023;-87
2022/08/16 05:19:43;;;;;;;4.57;2.40;;;;;;;;;;5073131;28;20505;-89
2022/08/16 05:22:09;;;;;;;5.22;2.58;;;;;;;;;;5073459;28;20032;-89
2022/08/16 05:24:35;;;;;;;5.35;2.55;;;;;;;;;;5102242;28;20021;-89
2022/08/16 05:27:01;;;;;;;4.43;2.58;;;;;;;;;;5115411;28;20030;-88
2022/08/16 05:29:27;;;;;;;5.35;2.80;;;;;;;;;;5104468;28;20595;-90
2022/08/16 05:31:53;;;;;;;5.07;2.60;;;;;;;;;;5077423;28;20098;-86
2022/08/16 05:34:20;;;;;;;5.28;3.00;;;;;;;;;;5095095;28;20049;-87
2022/08/16 05:36:48;;;;;;;4.40;2.40;;;;;;;;;;5076448;28;20482;-87
2022/08/16 05:39:14;;;;;;;4.85;2.30;;;;;;;;;;5077256;28;20048;-87
2022/08/16 05:41:40;;;;;;;5.40;2.72;;;;;;;;;;5093868;28;20771;-86
2022/08/16 05:44:06;;;;;;;4.30;2.47;;;;;;;;;;5075274;28;20028;-87
2022/08/16 05:46:33;;;;;;;7.13;2.88;;;;;;;;;;5075327;28;20022;-89
2022/08/16 05:49:00;;;;;;;6.93;2.47;;;;;;;;;;5076516;28;20032;-86
2022/08/16 05:51:26;;;;;;;4.75;2.67;;;;;;;;;;5090199;28;20459;-87
2022/08/16 05:53:52;;;;;;;4.72;2.50;;;;;;;;;;5076158;28;20024;-87
2022/08/16 05:56:18;;;;;;;5.85;2.88;;;;;;;;;;5098291;28;20032;-88
2022/08/16 05:58:44;;;;;;;4.97;2.63;;;;;;;;;;5077523;28;20031;-88
2022/08/16 06:01:10;;;;;;;5.00;2.42;;;;;;;;;;5081201;28;20489;-87
2022/08/16 06:03:36;;;;;;;6.97;2.90;;;;;;;;;;5082280;28;20023;-86
2022/08/16 06:06:03;;;;;;;5.60;2.67;;;;;;;;;;5080509;28;20024;-87
2022/08/16 06:08:29;;;;;;;4.97;2.30;;;;;;;;;;5098523;28;20580;-88
2022/08/16 06:10:56;;;;;;;4.85;2.80;;;;;;;;;;5100564;28;20030;-87
2022/08/16 06:13:21;;;;;;;6.45;2.97;;;;;;;;;;5099434;28;20024;-86
2022/08/16 06:15:50;;;;;;;5.45;2.70;;;;;;;;;;5090822;28;20032;-87
2022/08/16 06:18:17;;;;;;;7.18;3.08;;;;;;;;;;5081325;28;20469;-86
2022/08/16 06:20:43;;;;;;;4.70;2.67;;;;;;;;;;5098851;28;20492;-87
2022/08/16 06:23:09;;;;;;;7.88;4.22;;;;;;;;;;5095066;28;20098;-89
2022/08/16 06:25:36;;;;;;;5.03;2.80;;;;;;;;;;5080310;28;20047;-87
2022/08/16 06:28:03;;;;;;;4.72;2.63;;;;;;;;;;5082698;28;20028;-86
2022/08/16 06:30:31;;;;;;;5.32;2.38;;;;;;;;;;5099786;28;20016;-86
2022/08/16 06:32:57;;;;;;;5.45;2.75;;;;;;;;;;5079031;28;20115;-87
2022/08/16 06:35:23;;;;;;;4.78;2.50;;;;;;;;;;5079999;28;20024;-86
2022/08/16 06:37:49;;;;;;;5.22;2.50;;;;;;;;;;5077846;28;20032;-86
2022/08/16 06:40:15;;;;;;;5.95;2.58;;;;;;;;;;5098852;28;20020;-87
2022/08/16 06:42:41;;;;;;;4.70;2.58;;;;;;;;;;5098780;28;20028;-87
2022/08/16 06:45:08;;;;;;;4.60;2.50;;;;;;;;;;5082571;28;20052;-86
2022/08/16 06:47:34;;;;;;;5.57;2.75;;;;;;;;;;5087786;28;20024;-87
2022/08/16 06:50:00;;;;;;;5.07;2.70;;;;;;;;;;5078846;28;20053;-88
2022/08/16 06:52:35;;;;;;;6.05;2.63;;;;;;;;;;5099126;28;20106;-86
2022/08/16 06:55:03;;;;;;;6.50;2.63;;;;;;;;;;5101857;28;20070;-87
2022/08/16 06:57:29;;;;;;;4.72;2.47;;;;;;;;;;5087768;28;20024;-87
2022/08/16 06:59:55;;;;;;;5.20;2.90;;;;;;;;;;5089842;28;20091;-88
2022/08/16 07:02:21;;;;;;;5.75;2.60;;;;;;;;;;5078233;28;20025;-87
2022/08/16 07:04:47;;;;;;;5.30;2.95;;;;;;;;;;5099877;28;20024;-86
2022/08/16 07:07:13;;;;;;;6.57;2.67;;;;;;;;;;5082221;28;20123;-87
2022/08/16 07:09:39;;;;;;;4.72;2.58;;;;;;;;;;5097864;28;20438;-86
2022/08/16 07:12:05;;;;;;;4.82;2.53;;;;;;;;;;5086372;28;20051;-86
2022/08/16 07:14:31;;;;;;;6.25;2.88;;;;;;;;;;5093251;28;20028;-86
2022/08/16 07:16:57;;;;;;;5.75;3.00;;;;;;;;;;5096721;28;20028;-87
2022/08/16 07:19:24;;;;;;;9.35;2.88;;;;;;;;;;5077643;28;20028;-85
2022/08/16 07:21:50;;;;;;;6.50;3.05;;;;;;;;;;5092844;28;20040;-87
2022/08/16 07:24:16;;;;;;;8.52;3.50;;;;;;;;;;5072017;28;20029;-86
2022/08/16 07:26:43;;;;;;;7.50;3.30;;;;;;;;;;5070392;28;20024;-87
2022/08/16 07:29:09;;;;;;;6.88;3.08;;;;;;;;;;5096145;28;20024;-87
2022/08/16 07:31:35;;;;;;;5.43;3.15;;;;;;;;;;5067602;28;20029;-88
2022/08/16 07:34:01;;;;;;;6.07;2.60;;;;;;;;;;5061796;28;20118;-86
2022/08/16 07:36:28;;;;;;;5.45;3.00;;;;;;;;;;5066370;28;20082;-87
2022/08/16 07:38:54;;;;;;;7.32;3.42;;;;;;;;;;5080779;28;20049;-87
2022/08/16 07:41:20;;;;;;;6.15;3.30;;;;;;;;;;5077669;28;20024;-87
2022/08/16 07:43:46;;;;;;;6.28;3.00;;;;;;;;;;5058983;28;20061;-88
2022/08/16 07:46:12;;;;;;;5.88;3.00;;;;;;;;;;5086321;28;20021;-87
2022/08/16 07:48:38;;;;;;;4.72;2.60;;;;;;;;;;5082186;28;20023;-86
2022/08/16 07:51:04;;;;;;;6.18;3.00;;;;;;;;;;5099540;28;20035;-88
2022/08/16 07:53:32;;;;;;;6.60;2.92;;;;;;;;;;5094380;28;20020;-87
2022/08/16 07:55:59;;;;;;;5.50;3.05;;;;;;;;;;5075935;28;20032;-87
2022/08/16 07:58:27;;;;;;;5.65;3.00;;;;;;;;;;5093214;28;20293;-88
2022/08/16 08:00:53;;;;;;;6.25;3.05;;;;;;;;;;5095012;28;20024;-88
2022/08/16 08:03:19;;;;;;;6.70;3.53;;;;;;;;;;5092386;28;20137;-83
2022/08/16 08:05:45;;;;;;;6.03;3.33;;;;;;;;;;5094894;28;20024;-83
2022/08/16 08:08:12;;;;;;;5.40;3.15;;;;;;;;;;5095893;28;20430;-84
2022/08/16 08:10:38;;;;;;;6.50;3.00;;;;;;;;;;5074480;28;20028;-88
2022/08/16 08:13:04;;;;;;;5.13;3.30;;;;;;;;;;5094693;28;20034;-87
2022/08/16 08:15:30;;;;;;;5.45;3.38;;;;;;;;;;5095828;28;20035;-87
2022/08/16 08:18:00;;;;;;;5.00;2.78;;;;;;;;;;5090764;28;20036;-87
2022/08/16 08:20:26;;;;;;;5.63;3.22;;;;;;;;;;5073895;28;20044;-85
2022/08/16 08:22:53;;;;;;;5.47;3.50;;;;;;;;;;5081494;28;20028;-86
2022/08/16 08:25:20;;;;;;;5.68;3.33;;;;;;;;;;5090685;28;20336;-87
2022/08/16 08:27:46;;;;;;;7.68;2.97;;;;;;;;;;5074944;28;20100;-83
2022/08/16 08:30:13;;;;;;;5.10;2.90;;;;;;;;;;5072712;28;20413;-85
2022/08/16 08:32:39;;;;;;;5.20;2.80;;;;;;;;;;5072021;28;20113;-85
2022/08/16 08:35:06;;;;;;;5.43;2.65;;;;;;;;;;5064605;28;20020;-87
2022/08/16 08:37:34;;;;;;;5.97;3.42;;;;;;;;;;5093455;28;20017;-87
2022/08/16 08:40:00;;;;;;;5.05;3.03;;;;;;;;;;5091849;28;20031;-87
2022/08/16 08:42:27;;;;;;;6.95;3.40;;;;;;;;;;5105943;28;20046;-90
2022/08/16 08:44:53;;;;;;;6.70;3.10;;;;;;;;;;5114969;28;20031;-87
2022/08/16 08:47:19;;;;;;;5.80;3.58;;;;;;;;;;5106966;28;20081;-86
2022/08/16 08:49:46;;;;;;;6.78;3.90;;;;;;;;;;5091493;28;20440;-87
2022/08/16 08:52:12;;;;;;;5.57;3.22;;;;;;;;;;5076415;28;20039;-87
2022/08/16 08:54:38;;;;;;;6.18;3.50;;;;;;;;;;5092953;28;20023;-88
2022/08/16 08:57:05;;;;;;;5.50;3.17;;;;;;;;;;5073464;28;20020;-87
2022/08/16 08:59:31;;;;;;;5.65;3.25;;;;;;;;;;5074639;28;20016;-86
2022/08/16 09:01:58;;;;;;;5.60;3.08;;;;;;;;;;5087511;28;20143;-86
2022/08/16 09:04:27;;;;;;;4.47;2.95;;;;;;;;;;5093301;28;20020;-87
2022/08/16 09:06:54;;;;;;;5.72;3.30;;;;;;;;;;5073547;28;20034;-87
2022/08/16 09:09:20;;;;;;;8.80;3.55;;;;;;;;;;5073903;28;20028;-86
2022/08/16 09:11:47;;;;;;;5.30;3.00;;;;;;;;;;5074459;28;20024;-86
2022/08/16 09:14:13;;;;;;;6.20;3.10;;;;;;;;;;5098445;28;20111;-86
2022/08/16 09:16:39;;;;;;;5.93;3.45;;;;;;;;;;5093222;28;20028;-86
2022/08/16 09:19:05;;;;;;;6.15;3.38;;;;;;;;;;5093863;28;20024;-85
2022/08/16 09:21:31;;;;;;;5.47;3.03;;;;;;;;;;5077574;28;20496;-86
2022/08/16 09:23:57;;;;;;;6.43;3.20;;;;;;;;;;5096588;28;20030;-86
2022/08/16 09:26:23;;;;;;;5.43;3.28;;;;;;;;;;5094760;28;20520;-87
2022/08/16 09:28:50;;;;;;;5.80;3.10;;;;;;;;;;5093772;28;20087;-87
2022/08/16 09:31:16;;;;;;;5.05;2.78;;;;;;;;;;5076177;28;20046;-86
2022/08/16 09:33:43;;;;;;;5.25;3.20;;;;;;;;;;5079494;28;20441;-86
2022/08/16 09:36:13;;;;;;;4.70;3.03;;;;;;;;;;5075025;28;20535;-89
2022/08/16 09:38:39;;;;;;;6.03;3.20;;;;;;;;;;5088745;28;20035;-86
2022/08/16 09:41:07;;;;;;;4.95;2.90;;;;;;;;;;5094930;28;20065;-85
2022/08/16 09:43:34;;;;;;;5.20;3.13;;;;;;;;;;5092716;28;20063;-86
2022/08/16 09:46:06;;;;;;;6.40;3.00;;;;;;;;;;5075131;28;20055;-86
2022/08/16 09:48:32;;;;;;;6.93;3.20;;;;;;;;;;5093531;28;20024;-86
2022/08/16 09:50:58;;;;;;;5.82;3.40;;;;;;;;;;5076053;28;20466;-86
2022/08/16 09:53:25;;;;;;;6.78;3.00;;;;;;;;;;5093701;28;20203;-86
2022/08/16 09:55:53;;;;;;;4.97;3.13;;;;;;;;;;5096025;28;20028;-86
2022/08/16 09:58:20;;;;;;;6.10;3.83;;;;;;;;;;5074742;28;20028;-85
2022/08/16 10:00:47;;;;;;;6.15;3.30;;;;;;;;;;5091397;28;20044;-85
2022/08/16 10:03:13;;;;;;;5.75;3.20;;;;;;;;;;5076645;28;20485;-87
2022/08/16 10:05:39;;;;;;;5.10;3.33;;;;;;;;;;5094767;28;20040;-87
2022/08/16 10:08:06;;;;;;;5.82;3.60;;;;;;;;;;5086672;28;20026;-86
2022/08/16 10:10:33;;;;;;;5.78;3.50;;;;;;;;;;5094399;28;20027;-87
2022/08/16 10:13:11;;;;;;;5.75;3.42;;;;;;;;;;5077717;28;20028;-86
2022/08/16 10:15:38;;;;;;;6.28;2.90;;;;;;;;;;5093919;28;20055;-86
2022/08/16 10:18:07;;;;;;;5.88;3.10;;;;;;;;;;5075966;28;20036;-87
2022/08/16 10:20:36;;;;;;;5.03;3.50;;;;;;;;;;5078922;28;20036;-87
2022/08/16 10:23:06;;;;;;;5.30;3.50;;;;;;;;;;5074474;28;20403;-87
2022/08/16 10:25:34;;;;;;;5.22;2.92;;;;;;;;;;5073951;28;20016;-87
2022/08/16 10:28:00;;;;;;;6.22;3.55;;;;;;;;;;5090529;28;20050;-86
2022/08/16 10:30:26;;;;;;;5.35;3.30;;;;;;;;;;5071356;28;20052;-86
2022/08/16 10:32:52;;;;;;;5.13;3.20;;;;;;;;;;5076824;28;20028;-86
2022/08/16 10:35:18;;;;;;;10.18;3.78;;;;;;;;;;5100094;28;20497;-88
2022/08/16 10:37:45;;;;;;;4.97;3.10;;;;;;;;;;5072420;28;20423;-87
2022/08/16 10:40:13;;;;;;;5.75;3.28;;;;;;;;;;5088661;28;20533;-85
2022/08/16 10:42:39;;;;;;;6.20;3.53;;;;;;;;;;5062040;28;20032;-86
2022/08/16 10:45:05;;;;;;;5.57;3.60;;;;;;;;;;5096123;28;20449;-87
2022/08/16 10:47:31;;;;;;;7.05;3.10;;;;;;;;;;5076155;28;20024;-87
2022/08/16 10:49:58;;;;;;;8.23;3.75;;;;;;;;;;5074921;28;20027;-86
2022/08/16 10:52:24;;;;;;;5.75;3.13;;;;;;;;;;5093292;28;20024;-86
2022/08/16 10:54:50;;;;;;;5.00;3.05;;;;;;;;;;5081475;28;20568;-87
2022/08/16 10:57:19;;;;;;;5.20;3.40;;;;;;;;;;5091619;28;20409;-88
2022/08/16 10:59:45;;;;;;;5.15;3.20;;;;;;;;;;5078735;28;20016;-86
2022/08/16 11:02:12;;;;;;;7.75;3.20;;;;;;;;;;5096920;28;20024;-86
2022/08/16 11:04:38;;;;;;;6.68;3.30;;;;;;;;;;5078575;28;20040;-87
2022/08/16 11:07:05;;;;;;;6.25;3.63;;;;;;;;;;5078274;28;20020;-87
2022/08/16 11:09:31;;;;;;;4.93;3.03;;;;;;;;;;5080912;28;20024;-85
2022/08/16 11:11:57;;;;;;;5.80;3.80;;;;;;;;;;5079729;28;20063;-86
2022/08/16 11:14:23;;;;;;;6.15;3.70;;;;;;;;;;5101669;28;20043;-86
2022/08/16 11:16:49;;;;;;;5.05;3.22;;;;;;;;;;5078885;28;20026;-86
2022/08/16 11:19:15;;;;;;;6.30;3.40;;;;;;;;;;5079189;28;20115;-86
2022/08/16 11:21:42;;;;;;;4.68;3.08;;;;;;;;;;5098076;28;20044;-87
2022/08/16 11:24:08;;;;;;;6.18;3.20;;;;;;;;;;5078342;28;20036;-87
2022/08/16 11:26:34;;;;;;;6.90;3.30;;;;;;;;;;5098569;28;20075;-88
2022/08/16 11:29:00;;;;;;;5.10;3.60;;;;;;;;;;5099320;28;20035;-88
2022/08/16 11:31:26;;;;;;;5.40;3.20;;;;;;;;;;5100818;28;20030;-87
2022/08/16 11:33:52;;;;;;;5.05;2.83;;;;;;;;;;5099901;28;20084;-86
2022/08/16 11:36:18;;;;;;;5.97;3.20;;;;;;;;;;5099944;28;20023;-87
2022/08/16 11:38:45;;;;;;;5.85;3.22;;;;;;;;;;5112978;28;20046;-88
2022/08/16 11:41:15;;;;;;;6.45;3.60;;;;;;;;;;5096938;28;20021;-89
2022/08/16 11:43:41;;;;;;;5.55;3.22;;;;;;;;;;5062677;28;20069;-85
2022/08/16 11:46:09;;;;;;;5.47;3.28;;;;;;;;;;5071239;28;20036;-89
2022/08/16 11:48:35;;;;;;;6.50;3.38;;;;;;;;;;5094513;28;20026;-87
2022/08/16 11:51:02;;;;;;;5.38;3.20;;;;;;;;;;5077776;28;20020;-87
2022/08/16 11:53:29;;;;;;;7.63;3.72;;;;;;;;;;5076329;28;20032;-88
2022/08/16 11:55:55;;;;;;;5.43;3.22;;;;;;;;;;5094195;28;20036;-87
2022/08/16 11:58:25;;;;;;;4.70;3.17;;;;;;;;;;5078222;28;20470;-86
2022/08/16 12:00:53;;;;;;;5.75;3.40;;;;;;;;;;5095406;28;20028;-87
2022/08/16 12:03:19;;;;;;;6.40;3.40;;;;;;;;;;5093743;28;20019;-87
2022/08/16 12:05:46;;;;;;;5.43;3.38;;;;;;;;;;5100272;28;20012;-87
2022/08/16 12:08:14;;;;;;;7.55;3.58;;;;;;;;;;5082523;28;20032;-86
2022/08/16 12:10:40;;;;;;;4.60;3.13;;;;;;;;;;5076704;28;20028;-87
2022/08/16 12:13:07;;;;;;;6.97;3.22;;;;;;;;;;5096585;28;20035;-86
2022/08/16 12:15:33;;;;;;;5.32;3.28;;;;;;;;;;5075737;28;20016;-87
2022/08/16 12:17:59;;;;;;;5.93;3.50;;;;;;;;;;5093402;28;20024;-88
2022/08/16 12:20:27;;;;;;;5.60;3.25;;;;;;;;;;5097681;28;20117;-88
2022/08/16 12:22:53;;;;;;;5.57;3.00;;;;;;;;;;5090088;28;20047;-86
2022/08/16 12:25:20;;;;;;;5.43;3.25;;;;;;;;;;5099375;28;20047;-87
2022/08/16 12:27:46;;;;;;;6.88;3.67;;;;;;;;;;5116693;28;20035;-87
2022/08/16 12:30:14;;;;;;;4.72;3.00;;;;;;;;;;5098160;28;20009;-86
2022/08/16 12:32:40;;;;;;;5.18;3.40;;;;;;;;;;5113089;28;20012;-86
2022/08/16 12:35:12;;;;;;;5.78;3.42;;;;;;;;;;5098696;28;20020;-87
2022/08/16 12:37:39;;;;;;;5.57;3.22;;;;;;;;;;5076557;28;20386;-86
2022/08/16 12:40:09;;;;;;;6.88;3.38;;;;;;;;;;5074342;28;20048;-87
2022/08/16 12:42:35;;;;;;;5.65;3.40;;;;;;;;;;5092534;28;20106;-87
2022/08/16 12:45:02;;;;;;;6.57;3.15;;;;;;;;;;5075151;28;20097;-88
2022/08/16 12:50:13;;;;;;;7.40;3.92;;;;;;;;;;5091842;28;20047;-85
2022/08/16 12:52:39;;;;;;;5.28;3.20;;;;;;;;;;5078132;28;20111;-86
2022/08/16 12:55:05;;;;;;;6.07;3.60;;;;;;;;;;5091371;28;20505;-86
2022/08/16 12:57:31;;;;;;;5.63;3.03;;;;;;;;;;5076453;28;20405;-87
2022/08/16 12:59:59;;;;;;;5.93;3.38;;;;;;;;;;5090899;28;20083;-87
2022/08/16 13:02:25;;;;;;;6.18;3.17;;;;;;;;;;5076523;28;20028;-87
2022/08/16 13:04:51;;;;;;;5.45;3.35;;;;;;;;;;5091861;28;20482;-88
2022/08/16 13:07:18;;;;;;;4.68;3.17;;;;;;;;;;5072738;28;20505;-87
2022/08/16 13:09:55;;;;;;;4.82;3.20;;;;;;;;;;5075582;28;20390;-87
2022/08/16 13:12:26;;;;;;;7.13;3.50;;;;;;;;;;5093247;28;20107;-86
2022/08/16 13:14:54;;;;;;;6.23;3.57;;;;;;;;;;5089221;28;20035;-87
2022/08/16 13:17:22;;;;;;;6.28;3.50;;;;;;;;;;5075380;28;20024;-89
2022/08/16 13:19:50;;;;;;;5.75;3.10;;;;;;;;;;5073953;28;20391;-86
2022/08/16 13:22:17;;;;;;;5.40;3.40;;;;;;;;;;5073896;28;20048;-86
2022/08/16 13:24:43;;;;;;;7.22;3.72;;;;;;;;;;5069580;28;20079;-87
2022/08/16 13:27:09;;;;;;;4.80;3.35;;;;;;;;;;5074246;28;20441;-87
2022/08/16 13:29:35;;;;;;;5.63;3.30;;;;;;;;;;5094331;28;20021;-86
2022/08/16 13:32:02;;;;;;;4.85;3.28;;;;;;;;;;5093386;28;20020;-86
2022/08/16 13:34:28;;;;;;;5.28;3.03;;;;;;;;;;5092255;28;20077;-87
2022/08/16 13:36:54;;;;;;;6.45;3.10;;;;;;;;;;5074801;28;20135;-86
2022/08/16 13:39:20;;;;;;;5.53;3.25;;;;;;;;;;5073257;28;20055;-86
2022/08/16 13:41:46;;;;;;;6.68;3.35;;;;;;;;;;5076142;28;20123;-86
2022/08/16 13:44:11;;;;;;;6.10;3.50;;;;;;;;;;5072191;28;20066;-87
2022/08/16 13:46:40;;;;;;;5.40;3.60;;;;;;;;;;5075022;28;20024;-87
2022/08/16 13:49:06;;;;;;;5.78;3.70;;;;;;;;;;5092802;28;20385;-88
2022/08/16 13:51:32;;;;;;;5.88;3.47;;;;;;;;;;5075380;28;20470;-87
2022/08/16 13:54:01;;;;;;;5.85;3.30;;;;;;;;;;5091530;28;20454;-86
2022/08/16 13:56:28;;;;;;;4.65;2.83;;;;;;;;;;5077776;28;20531;-86
2022/08/16 13:58:54;;;;;;;7.63;6.30;;;;;;;;;;5092151;28;20034;-86
2022/08/16 14:01:20;;;;;;;5.20;3.17;;;;;;;;;;5093156;28;20081;-87
2022/08/16 14:03:46;;;;;;;6.03;3.30;;;;;;;;;;5094409;28;20020;-85
2022/08/16 14:06:12;;;;;;;5.13;2.92;;;;;;;;;;5092785;28;20024;-86
2022/08/16 14:08:39;;;;;;;4.90;3.03;;;;;;;;;;5076853;28;20016;-85
2022/08/16 14:11:05;;;;;;;6.35;3.28;;;;;;;;;;5095727;28;20033;-87
2022/08/16 14:13:34;;;;;;;4.68;3.10;;;;;;;;;;5075451;28;20031;-86
2022/08/16 14:16:01;;;;;;;4.97;3.28;;;;;;;;;;5077634;28;20031;-86
2022/08/16 14:18:27;;;;;;;6.45;3.38;;;;;;;;;;5096631;28;20027;-86
2022/08/16 14:20:53;;;;;;;5.90;3.10;;;;;;;;;;5096647;28;20040;-87
2022/08/16 14:23:19;;;;;;;5.07;3.15;;;;;;;;;;5077731;28;20028;-86
2022/08/16 14:25:45;;;;;;;4.55;2.88;;;;;;;;;;5096179;28;20027;-86
2022/08/16 14:28:11;;;;;;;5.57;3.08;;;;;;;;;;5096102;28;20470;-87
2022/08/16 14:30:37;;;;;;;4.57;2.97;;;;;;;;;;5096693;28;20080;-87
2022/08/16 14:33:04;;;;;;;4.72;2.90;;;;;;;;;;5093903;28;20024;-85
2022/08/16 14:35:31;;;;;;;5.75;3.53;;;;;;;;;;5077265;28;20064;-88
2022/08/16 14:37:57;;;;;;;4.85;3.03;;;;;;;;;;5093178;28;20064;-87
2022/08/16 14:40:23;;;;;;;5.75;3.22;;;;;;;;;;5078639;28;20031;-86
2022/08/16 14:42:50;;;;;;;6.35;3.35;;;;;;;;;;5095603;28;20020;-86